ASN logo
ASN Wikibase Occurrence # 167040
Last updated: 20 October 2017
This information is added by users of ASN. Neither ASN nor the Flight Safety Foundation are responsible for the completeness or correctness of this information. If you feel this information is incomplete or incorrect, you can submit corrected information.

Date:17-JUN-2014
Time:10:01
Type:Silhouette image of generic A320 model; specific model in this crash may look slightly different
Airbus A320-214
Owner/operator:China Eastern Airlines
Registration: B-6928
C/n / msn: 4987
Fatalities:Fatalities: 0 / Occupants:
Other fatalities:0
Airplane damage: None
Location:Nanning Airport (NNG/ZGNN) -   China
Phase: Landing
Nature:Domestic Scheduled Passenger
Departure airport:Nanchang Airport (KHN/ZSCN)
Destination airport:Nanning Airport (NNG/ZGNN)
Narrative:
China Eastern Airlines flight MU2005 landed on a taxiway at Nanning Airport (NNG), China.
Nanning has a single runway 05/23, 3200 m long and 45 m wide. The parallel taxiway A was previously in use as the main runway.

Metar reports for 02:00Z / 10:00 LT and 03:00Z
ZGNN 170200Z VRB02MPS CAVOK 30/24 Q1004 NOSIG
ZGNN 170300Z VRB01MPS 9999 SCT023 32/24 Q1005 NOSIG

Sources:

http://hi.people.com.cn/n/2014/0617/c228872-21447271.html
http://www.chinanews.com/sh/2014/06-18/6292898.shtml
http://www.globalpost.com/dispatch/news/xinhua-news-agency/140617/flight-gets-lost-taxiway

http://yinlei.org/x-plane10/doc/ZGNN.pdf (aerodrome chart)


Revision history:

Date/timeContributorUpdates
18-Jun-2014 13:33 harro Added
18-Jun-2014 13:39 harro Updated [Source, Narrative]

Corrections or additions? ... Edit this accident description